Time;durP1;ratioP1;P1;durP2;ratioP2;P2;SDS_P1;SDS_P2;PMS_P1;PMS_P2;Temp;Humidity;BMP_temperature;BMP_pressure;BME280_temperature;BME280_humidity;BME280_pressure;Samples;Min_cycle;Max_cycle;Signal;HPM_P1;HPM_P2
2022/07/28 00:00:27;;;;;;;11.93;4.67;;;;;;;;;;776179;178;918484;-58
2022/07/28 00:02:53;;;;;;;7.27;4.70;;;;;;;;;;772521;177;937844;-59
2022/07/28 00:05:18;;;;;;;10.90;4.10;;;;;;;;;;777663;181;915840;-58
2022/07/28 00:07:44;;;;;;;10.43;4.30;;;;;;;;;;773443;180;896479;-59
2022/07/28 00:10:10;;;;;;;12.03;5.70;;;;;;;;;;771337;178;916924;-57
2022/07/28 00:12:36;;;;;;;5.07;3.87;;;;;;;;;;775815;180;918940;-58
2022/07/28 00:15:02;;;;;;;10.33;4.13;;;;;;;;;;773198;180;918973;-58
2022/07/28 00:17:28;;;;;;;9.87;4.20;;;;;;;;;;768130;181;919755;-58
2022/07/28 00:19:54;;;;;;;13.20;4.13;;;;;;;;;;770365;182;919560;-57
2022/07/28 00:22:19;;;;;;;7.53;3.90;;;;;;;;;;774613;178;916820;-58
2022/07/28 00:24:45;;;;;;;8.90;3.97;;;;;;;;;;766037;181;919959;-58
2022/07/28 00:27:12;;;;;;;8.33;4.23;;;;;;;;;;775229;180;919452;-58
2022/07/28 00:29:37;;;;;;;7.57;3.67;;;;;;;;;;775537;180;919098;-60
2022/07/28 00:32:03;;;;;;;12.27;4.30;;;;;;;;;;767096;178;931156;-57
2022/07/28 00:34:29;;;;;;;8.30;4.17;;;;;;;;;;773234;181;920846;-58
2022/07/28 00:36:54;;;;;;;9.30;3.97;;;;;;;;;;782427;177;920306;-57
2022/07/28 00:39:20;;;;;;;5.03;3.50;;;;;;;;;;776537;178;919247;-58
2022/07/28 00:41:46;;;;;;;7.47;4.17;;;;;;;;;;773509;181;918561;-58
2022/07/28 00:44:12;;;;;;;6.80;3.80;;;;;;;;;;782715;180;817491;-57
2022/07/28 00:46:38;;;;;;;9.90;3.73;;;;;;;;;;775916;177;918753;-58
2022/07/28 00:49:04;;;;;;;9.50;4.50;;;;;;;;;;771172;178;883554;-59
2022/07/28 00:51:29;;;;;;;8.90;4.10;;;;;;;;;;772060;181;919551;-58
2022/07/28 00:53:55;;;;;;;9.73;3.80;;;;;;;;;;773746;180;910369;-58
2022/07/28 00:56:21;;;;;;;10.57;4.20;;;;;;;;;;772976;180;914230;-57
2022/07/28 00:58:47;;;;;;;11.53;3.93;;;;;;;;;;776096;181;857910;-58
2022/07/28 01:01:16;;;;;;;7.53;4.10;;;;;;;;;;779608;180;819062;-60
2022/07/28 01:03:40;;;;;;;6.80;4.20;;;;;;;;;;775511;176;919015;-58
2022/07/28 01:06:20;;;;;;;8.73;4.37;;;;;;;;;;774476;177;919597;-59
2022/07/28 01:08:51;;;;;;;9.50;5.10;;;;;;;;;;768510;179;919409;-58
2022/07/28 01:11:20;;;;;;;13.40;4.40;;;;;;;;;;777405;180;918786;-59
2022/07/28 01:13:49;;;;;;;9.83;4.50;;;;;;;;;;774105;180;918461;-58
2022/07/28 01:16:15;;;;;;;9.00;4.47;;;;;;;;;;761030;181;915244;-58
2022/07/28 01:18:41;;;;;;;7.63;4.67;;;;;;;;;;773789;180;861592;-58
2022/07/28 01:21:07;;;;;;;12.40;4.77;;;;;;;;;;769783;182;814236;-58
2022/07/28 01:23:35;;;;;;;9.90;4.30;;;;;;;;;;773486;180;918506;-57
2022/07/28 01:26:19;;;;;;;8.57;4.40;;;;;;;;;;774850;180;917786;-59
2022/07/28 01:28:47;;;;;;;10.00;4.20;;;;;;;;;;773210;179;912056;-59
2022/07/28 01:31:13;;;;;;;12.53;4.73;;;;;;;;;;768435;181;909768;-58
2022/07/28 01:33:41;;;;;;;11.80;4.13;;;;;;;;;;771554;181;810376;-57
2022/07/28 01:36:08;;;;;;;9.00;4.27;;;;;;;;;;775108;180;892733;-58
2022/07/28 01:38:33;;;;;;;15.27;4.40;;;;;;;;;;760804;183;922168;-58
2022/07/28 01:40:59;;;;;;;8.67;4.73;;;;;;;;;;759617;184;918791;-59
2022/07/28 01:43:25;;;;;;;7.10;4.30;;;;;;;;;;766006;180;918866;-59
2022/07/28 01:45:51;;;;;;;11.27;4.30;;;;;;;;;;769975;180;917669;-59
2022/07/28 01:48:17;;;;;;;7.73;4.17;;;;;;;;;;772661;180;918164;-58
2022/07/28 01:50:43;;;;;;;15.77;3.70;;;;;;;;;;774664;178;919775;-58
2022/07/28 01:53:10;;;;;;;4.60;3.57;;;;;;;;;;772311;178;919183;-58
2022/07/28 01:55:36;;;;;;;12.73;4.37;;;;;;;;;;771048;179;919962;-59
2022/07/28 01:58:02;;;;;;;11.33;4.73;;;;;;;;;;770927;181;818373;-59
2022/07/28 02:00:28;;;;;;;11.50;4.53;;;;;;;;;;773551;177;918744;-58
2022/07/28 02:02:54;;;;;;;9.13;4.35;;;;;;;;;;764691;181;918665;-58
2022/07/28 02:05:20;;;;;;;6.87;3.50;;;;;;;;;;781453;180;919162;-59
2022/07/28 02:07:46;;;;;;;15.60;4.43;;;;;;;;;;774094;176;917487;-58
2022/07/28 02:10:11;;;;;;;8.93;4.00;;;;;;;;;;776154;178;926898;-57
2022/07/28 02:12:37;;;;;;;9.63;3.80;;;;;;;;;;780914;178;891137;-57
2022/07/28 02:15:03;;;;;;;9.00;3.67;;;;;;;;;;773659;179;918825;-57
2022/07/28 02:17:29;;;;;;;7.57;4.00;;;;;;;;;;764218;182;920702;-57
2022/07/28 02:19:55;;;;;;;8.82;4.95;;;;;;;;;;772185;178;918679;-58
2022/07/28 02:22:21;;;;;;;16.33;4.53;;;;;;;;;;776185;181;917823;-58
2022/07/28 02:24:47;;;;;;;10.60;4.90;;;;;;;;;;776515;180;919820;-58
2022/07/28 02:27:13;;;;;;;6.95;3.85;;;;;;;;;;775216;180;822645;-59
2022/07/28 02:29:48;;;;;;;8.30;4.70;;;;;;;;;;766873;181;920767;-58
2022/07/28 02:32:17;;;;;;;8.13;4.20;;;;;;;;;;763492;181;917996;-57
2022/07/28 02:34:42;;;;;;;7.23;3.93;;;;;;;;;;773659;179;919029;-58
2022/07/28 02:37:08;;;;;;;7.10;3.87;;;;;;;;;;774364;181;921010;-59
2022/07/28 02:39:34;;;;;;;9.13;4.67;;;;;;;;;;782203;180;630587;-57
2022/07/28 02:42:01;;;;;;;19.30;5.77;;;;;;;;;;774008;180;616850;-58
2022/07/28 02:44:27;;;;;;;8.90;4.33;;;;;;;;;;778832;180;626282;-57
2022/07/28 02:46:52;;;;;;;20.30;5.03;;;;;;;;;;772539;180;619559;-58
2022/07/28 02:49:18;;;;;;;6.27;3.70;;;;;;;;;;779276;180;628263;-57
2022/07/28 02:51:44;;;;;;;5.43;4.17;;;;;;;;;;777071;178;918169;-57
2022/07/28 02:54:10;;;;;;;36.97;6.87;;;;;;;;;;775036;179;916855;-59
2022/07/28 02:56:36;;;;;;;18.30;4.90;;;;;;;;;;781309;179;916476;-58
2022/07/28 02:59:02;;;;;;;5.40;4.43;;;;;;;;;;774825;177;918397;-58
2022/07/28 03:01:28;;;;;;;5.97;5.07;;;;;;;;;;775332;180;919533;-58
2022/07/28 03:03:53;;;;;;;11.75;4.00;;;;;;;;;;779143;177;918990;-58
2022/07/28 03:06:21;;;;;;;10.70;4.30;;;;;;;;;;771154;178;919255;-57
2022/07/28 03:08:45;;;;;;;8.87;4.13;;;;;;;;;;769597;177;918752;-58
2022/07/28 03:11:11;;;;;;;7.13;5.03;;;;;;;;;;779453;180;918179;-58
2022/07/28 03:13:37;;;;;;;6.37;4.60;;;;;;;;;;772913;180;904922;-58
2022/07/28 03:16:03;;;;;;;5.93;4.50;;;;;;;;;;770354;181;816714;-58
2022/07/28 03:18:28;;;;;;;9.93;4.37;;;;;;;;;;770161;178;925308;-59
2022/07/28 03:20:54;;;;;;;5.70;4.33;;;;;;;;;;770586;180;841142;-58
2022/07/28 03:23:20;;;;;;;7.13;4.10;;;;;;;;;;763979;179;919259;-59
2022/07/28 03:25:46;;;;;;;8.53;4.33;;;;;;;;;;769673;181;919218;-58
2022/07/28 03:28:13;;;;;;;12.30;4.83;;;;;;;;;;776501;181;920688;-58
2022/07/28 03:30:39;;;;;;;7.10;4.33;;;;;;;;;;773658;177;742246;-57
2022/07/28 03:33:06;;;;;;;7.67;4.57;;;;;;;;;;771683;178;917998;-58
2022/07/28 03:35:32;;;;;;;7.63;4.40;;;;;;;;;;769483;181;816502;-61
2022/07/28 03:37:57;;;;;;;10.20;4.47;;;;;;;;;;772007;177;865341;-59
2022/07/28 03:40:24;;;;;;;8.73;4.97;;;;;;;;;;772544;180;816364;-59
2022/07/28 03:42:49;;;;;;;8.07;4.73;;;;;;;;;;772545;180;919879;-58
2022/07/28 03:45:15;;;;;;;11.07;4.60;;;;;;;;;;771731;177;813751;-58
2022/07/28 03:47:46;;;;;;;13.17;4.97;;;;;;;;;;773324;178;919415;-58
2022/07/28 03:50:12;;;;;;;8.53;4.80;;;;;;;;;;773304;178;917844;-58
2022/07/28 03:52:38;;;;;;;12.43;5.13;;;;;;;;;;776363;178;811821;-58
2022/07/28 03:55:04;;;;;;;8.10;4.43;;;;;;;;;;772164;181;917929;-59
2022/07/28 03:57:30;;;;;;;9.60;5.10;;;;;;;;;;760173;183;917978;-58
2022/07/28 03:59:56;;;;;;;12.17;4.37;;;;;;;;;;770945;181;918171;-58
2022/07/28 04:02:22;;;;;;;6.40;3.77;;;;;;;;;;780377;179;816452;-57
2022/07/28 04:04:48;;;;;;;5.47;4.20;;;;;;;;;;772607;176;913171;-58
2022/07/28 04:07:14;;;;;;;9.00;4.20;;;;;;;;;;777270;179;816163;-58
2022/07/28 04:09:40;;;;;;;7.40;3.63;;;;;;;;;;779750;180;626472;-59
2022/07/28 04:12:06;;;;;;;9.37;4.37;;;;;;;;;;778653;180;630047;-59
2022/07/28 04:14:32;;;;;;;9.87;4.50;;;;;;;;;;777295;181;628901;-57
2022/07/28 04:16:58;;;;;;;6.73;3.60;;;;;;;;;;784150;180;613477;-59
2022/07/28 04:19:24;;;;;;;14.87;4.00;;;;;;;;;;779693;180;623496;-58
2022/07/28 04:21:50;;;;;;;5.93;3.77;;;;;;;;;;778823;180;620540;-58
2022/07/28 04:24:15;;;;;;;6.60;4.40;;;;;;;;;;775131;180;623135;-58
2022/07/28 04:26:41;;;;;;;10.33;4.87;;;;;;;;;;773224;181;614601;-57
2022/07/28 04:29:07;;;;;;;9.03;4.90;;;;;;;;;;778235;180;726264;-58
2022/07/28 04:31:33;;;;;;;9.53;4.70;;;;;;;;;;775258;180;817057;-58
2022/07/28 04:33:59;;;;;;;10.03;4.10;;;;;;;;;;777584;181;633679;-58
2022/07/28 04:36:25;;;;;;;12.30;5.00;;;;;;;;;;774880;177;914417;-57
2022/07/28 04:38:50;;;;;;;6.67;4.40;;;;;;;;;;774315;177;916750;-58
2022/07/28 04:41:16;;;;;;;13.30;4.60;;;;;;;;;;769614;181;917688;-57
2022/07/28 04:43:44;;;;;;;12.87;4.90;;;;;;;;;;775992;180;810227;-57
2022/07/28 04:46:08;;;;;;;9.10;3.33;;;;;;;;;;770028;179;885256;-57
2022/07/28 04:48:34;;;;;;;5.37;3.85;;;;;;;;;;777794;178;918491;-58
2022/07/28 04:51:00;;;;;;;7.93;3.50;;;;;;;;;;766729;181;918294;-57
2022/07/28 04:53:27;;;;;;;13.60;3.75;;;;;;;;;;771282;180;916464;-57
2022/07/28 04:55:51;;;;;;;8.13;3.50;;;;;;;;;;760797;180;918996;-58
2022/07/28 04:58:17;;;;;;;7.60;3.70;;;;;;;;;;773533;179;910976;-56
2022/07/28 05:00:43;;;;;;;12.23;4.90;;;;;;;;;;773181;179;915922;-57
2022/07/28 05:03:09;;;;;;;10.02;5.05;;;;;;;;;;768630;179;915100;-57
2022/07/28 05:05:35;;;;;;;10.40;4.53;;;;;;;;;;771385;181;919141;-57
2022/07/28 05:08:01;;;;;;;14.80;4.80;;;;;;;;;;766635;179;919447;-61
2022/07/28 05:10:26;;;;;;;9.03;4.27;;;;;;;;;;774576;178;918361;-58
2022/07/28 05:12:53;;;;;;;16.07;4.10;;;;;;;;;;780898;180;917229;-58
2022/07/28 05:15:18;;;;;;;7.13;3.80;;;;;;;;;;777813;176;919144;-58
2022/07/28 05:17:44;;;;;;;8.77;4.20;;;;;;;;;;777286;180;918156;-56
2022/07/28 05:20:12;;;;;;;6.78;4.10;;;;;;;;;;773487;177;919757;-57
2022/07/28 05:22:41;;;;;;;6.07;3.00;;;;;;;;;;774479;181;811897;-57
2022/07/28 05:25:13;;;;;;;8.50;3.90;;;;;;;;;;769336;178;926445;-57
2022/07/28 05:27:39;;;;;;;9.10;3.50;;;;;;;;;;775261;180;919061;-57
2022/07/28 05:30:05;;;;;;;8.83;3.37;;;;;;;;;;774382;181;918585;-60
2022/07/28 05:32:31;;;;;;;5.13;3.37;;;;;;;;;;766223;181;907764;-57
2022/07/28 05:34:58;;;;;;;9.03;3.23;;;;;;;;;;766129;181;916271;-57
2022/07/28 05:37:23;;;;;;;8.63;3.40;;;;;;;;;;773716;180;907418;-56
2022/07/28 05:39:49;;;;;;;4.67;2.77;;;;;;;;;;777142;179;922159;-56
2022/07/28 05:42:14;;;;;;;10.57;3.70;;;;;;;;;;775201;178;917770;-56
2022/07/28 05:44:40;;;;;;;10.73;4.30;;;;;;;;;;774358;178;921164;-57
2022/07/28 05:47:06;;;;;;;7.50;3.92;;;;;;;;;;779660;180;819942;-57
2022/07/28 05:49:32;;;;;;;8.63;3.97;;;;;;;;;;775707;178;922168;-56
2022/07/28 05:51:58;;;;;;;8.23;3.17;;;;;;;;;;770464;180;949971;-56
2022/07/28 05:54:24;;;;;;;6.57;4.30;;;;;;;;;;776604;180;811064;-57
2022/07/28 05:56:50;;;;;;;9.63;3.90;;;;;;;;;;773068;178;914286;-57
2022/07/28 05:59:16;;;;;;;8.53;3.97;;;;;;;;;;771284;179;818248;-57
2022/07/28 06:01:41;;;;;;;6.73;4.00;;;;;;;;;;776580;180;820466;-57
2022/07/28 06:04:07;;;;;;;10.43;3.90;;;;;;;;;;778720;178;920351;-56
2022/07/28 06:06:33;;;;;;;8.40;3.77;;;;;;;;;;770888;181;918795;-58
2022/07/28 06:08:59;;;;;;;10.73;5.00;;;;;;;;;;774263;180;919119;-57
2022/07/28 06:11:25;;;;;;;6.53;4.67;;;;;;;;;;778916;180;919755;-57
2022/07/28 06:13:51;;;;;;;10.10;4.50;;;;;;;;;;771478;180;918231;-59
2022/07/28 06:16:18;;;;;;;7.37;4.00;;;;;;;;;;772705;180;917077;-57
2022/07/28 06:18:42;;;;;;;11.13;4.87;;;;;;;;;;778063;177;921448;-59
2022/07/28 06:21:08;;;;;;;11.70;4.30;;;;;;;;;;770328;179;1022005;-58
2022/07/28 06:23:34;;;;;;;11.40;5.20;;;;;;;;;;772389;180;819403;-56
2022/07/28 06:26:00;;;;;;;13.20;5.67;;;;;;;;;;772338;179;919302;-57
2022/07/28 06:28:26;;;;;;;9.10;4.87;;;;;;;;;;769860;181;825884;-55
2022/07/28 06:30:52;;;;;;;15.10;5.20;;;;;;;;;;769778;177;920580;-56
2022/07/28 06:33:17;;;;;;;8.37;4.30;;;;;;;;;;771193;180;919030;-56
2022/07/28 06:35:43;;;;;;;8.20;4.50;;;;;;;;;;776083;177;893057;-56
2022/07/28 06:38:09;;;;;;;7.63;4.20;;;;;;;;;;775548;180;819459;-56
2022/07/28 06:40:35;;;;;;;5.57;4.10;;;;;;;;;;773468;180;918804;-55
2022/07/28 06:43:01;;;;;;;10.30;4.27;;;;;;;;;;782763;178;623349;-56
2022/07/28 06:45:27;;;;;;;7.50;4.50;;;;;;;;;;776427;177;629541;-57
2022/07/28 06:47:53;;;;;;;17.07;4.87;;;;;;;;;;768926;180;635991;-55
2022/07/28 06:50:18;;;;;;;11.00;4.90;;;;;;;;;;765174;180;638551;-56
2022/07/28 06:52:44;;;;;;;11.70;4.70;;;;;;;;;;774662;180;642813;-56
2022/07/28 06:55:11;;;;;;;8.00;4.17;;;;;;;;;;777168;180;625112;-55
2022/07/28 06:57:36;;;;;;;14.00;4.50;;;;;;;;;;776299;179;635019;-57
2022/07/28 07:00:02;;;;;;;7.43;4.40;;;;;;;;;;777658;177;617688;-57
2022/07/28 07:02:28;;;;;;;14.03;4.10;;;;;;;;;;767005;181;635003;-56
2022/07/28 07:04:54;;;;;;;14.53;4.97;;;;;;;;;;774903;180;797924;-55
2022/07/28 07:07:21;;;;;;;10.67;4.07;;;;;;;;;;778951;180;625181;-55
2022/07/28 07:09:46;;;;;;;9.30;4.50;;;;;;;;;;773398;180;926472;-56
2022/07/28 07:12:12;;;;;;;9.30;4.23;;;;;;;;;;770376;177;916195;-56
2022/07/28 07:14:38;;;;;;;7.57;4.60;;;;;;;;;;775818;180;816128;-56
2022/07/28 07:17:04;;;;;;;7.53;6.27;;;;;;;;;;776098;181;632729;-57
2022/07/28 07:19:30;;;;;;;15.60;4.60;;;;;;;;;;773700;180;624384;-55
2022/07/28 07:21:56;;;;;;;9.67;4.30;;;;;;;;;;768623;180;629677;-57
2022/07/28 07:24:21;;;;;;;10.20;4.80;;;;;;;;;;781505;179;816252;-58
2022/07/28 07:26:47;;;;;;;8.97;4.13;;;;;;;;;;762032;184;634656;-57
2022/07/28 07:29:13;;;;;;;17.23;5.07;;;;;;;;;;772112;181;626612;-57
2022/07/28 07:31:39;;;;;;;10.00;4.93;;;;;;;;;;781877;181;621604;-56
2022/07/28 07:34:05;;;;;;;7.50;3.90;;;;;;;;;;775019;181;646896;-58
2022/07/28 07:36:31;;;;;;;11.80;4.70;;;;;;;;;;778816;181;640778;-55
2022/07/28 07:38:56;;;;;;;7.40;4.20;;;;;;;;;;784842;180;619825;-57
2022/07/28 07:41:22;;;;;;;12.63;4.07;;;;;;;;;;775505;179;804519;-57
2022/07/28 07:43:48;;;;;;;10.32;4.43;;;;;;;;;;777901;180;919923;-56
2022/07/28 07:46:14;;;;;;;5.70;3.80;;;;;;;;;;777510;177;626073;-57
2022/07/28 07:48:40;;;;;;;5.47;4.00;;;;;;;;;;780692;181;629243;-56
2022/07/28 07:51:06;;;;;;;7.30;3.30;;;;;;;;;;776502;180;627292;-57
2022/07/28 07:53:31;;;;;;;11.67;3.60;;;;;;;;;;772991;180;633635;-57
2022/07/28 07:55:57;;;;;;;6.80;3.60;;;;;;;;;;776861;180;628518;-58
2022/07/28 07:58:23;;;;;;;6.77;3.70;;;;;;;;;;779607;177;614862;-58
2022/07/28 08:00:49;;;;;;;11.07;4.10;;;;;;;;;;763077;184;635751;-59
2022/07/28 08:03:17;;;;;;;9.27;4.67;;;;;;;;;;773101;182;624964;-57
2022/07/28 08:05:42;;;;;;;7.73;4.13;;;;;;;;;;777514;181;629508;-57
2022/07/28 08:08:08;;;;;;;6.50;3.50;;;;;;;;;;776861;180;621257;-58
2022/07/28 08:10:34;;;;;;;6.47;3.70;;;;;;;;;;777031;179;717419;-57
2022/07/28 08:13:00;;;;;;;6.83;3.00;;;;;;;;;;780987;180;714456;-57
2022/07/28 08:15:26;;;;;;;12.40;3.20;;;;;;;;;;776634;179;715079;-58
2022/07/28 08:17:52;;;;;;;6.70;3.80;;;;;;;;;;774521;181;944550;-58
2022/07/28 08:20:18;;;;;;;8.33;3.00;;;;;;;;;;776520;180;619392;-57
2022/07/28 08:22:49;;;;;;;11.93;3.90;;;;;;;;;;768106;181;648179;-57
2022/07/28 08:25:15;;;;;;;5.70;3.30;;;;;;;;;;773743;181;634977;-58
2022/07/28 08:27:41;;;;;;;7.23;3.40;;;;;;;;;;778654;178;632999;-57
2022/07/28 08:30:07;;;;;;;5.80;3.43;;;;;;;;;;776143;181;632824;-58
2022/07/28 08:32:33;;;;;;;5.33;3.67;;;;;;;;;;777701;180;633740;-58
2022/07/28 08:34:59;;;;;;;12.83;3.53;;;;;;;;;;778261;179;629898;-58
2022/07/28 08:37:25;;;;;;;8.03;3.97;;;;;;;;;;782600;180;625425;-57
2022/07/28 08:39:50;;;;;;;6.77;3.43;;;;;;;;;;776896;180;630532;-56
2022/07/28 08:42:17;;;;;;;8.33;4.27;;;;;;;;;;776603;181;627392;-58
2022/07/28 08:44:45;;;;;;;8.50;4.17;;;;;;;;;;782624;180;619775;-58
2022/07/28 08:47:11;;;;;;;10.97;4.17;;;;;;;;;;769885;180;614286;-59
2022/07/28 08:49:36;;;;;;;8.33;4.00;;;;;;;;;;776889;177;617001;-58
2022/07/28 08:52:02;;;;;;;10.80;4.97;;;;;;;;;;780077;179;633084;-58
2022/07/28 08:54:28;;;;;;;11.73;4.87;;;;;;;;;;784850;177;616063;-59
2022/07/28 08:56:54;;;;;;;10.50;4.27;;;;;;;;;;779553;181;634657;-58
2022/07/28 08:59:20;;;;;;;7.33;4.30;;;;;;;;;;774170;181;631535;-59
2022/07/28 09:01:46;;;;;;;7.70;4.10;;;;;;;;;;785691;179;642721;-58
2022/07/28 09:04:11;;;;;;;8.87;3.87;;;;;;;;;;779865;180;620279;-58
2022/07/28 09:06:40;;;;;;;7.20;4.20;;;;;;;;;;772525;180;627950;-61
2022/07/28 09:09:04;;;;;;;5.40;3.30;;;;;;;;;;778087;178;620440;-63
2022/07/28 09:11:29;;;;;;;14.10;4.57;;;;;;;;;;776074;180;820789;-59
2022/07/28 09:13:55;;;;;;;6.30;4.70;;;;;;;;;;772849;180;925303;-58
2022/07/28 09:16:21;;;;;;;7.27;4.93;;;;;;;;;;765402;184;818671;-58
2022/07/28 09:18:47;;;;;;;11.17;5.10;;;;;;;;;;776834;181;622851;-58
2022/07/28 09:21:14;;;;;;;9.73;4.73;;;;;;;;;;780207;180;622464;-58
2022/07/28 09:23:41;;;;;;;11.13;5.40;;;;;;;;;;771980;180;619192;-59
2022/07/28 09:26:07;;;;;;;9.20;5.20;;;;;;;;;;783106;180;622471;-59
2022/07/28 09:28:33;;;;;;;7.73;4.37;;;;;;;;;;778157;180;629637;-59
2022/07/28 09:31:01;;;;;;;14.70;4.43;;;;;;;;;;775100;180;625507;-58
2022/07/28 09:33:25;;;;;;;14.83;7.07;;;;;;;;;;782375;180;620013;-57
2022/07/28 09:35:51;;;;;;;11.50;5.40;;;;;;;;;;773824;181;628934;-58
2022/07/28 09:38:17;;;;;;;11.50;5.30;;;;;;;;;;772600;180;628762;-58
2022/07/28 09:40:44;;;;;;;9.60;5.50;;;;;;;;;;779186;180;624462;-58
2022/07/28 09:43:09;;;;;;;11.03;5.17;;;;;;;;;;779918;180;618126;-58
2022/07/28 09:45:34;;;;;;;8.27;4.63;;;;;;;;;;776313;180;623507;-58
2022/07/28 09:48:06;;;;;;;8.23;5.13;;;;;;;;;;774618;180;629713;-59
2022/07/28 09:50:32;;;;;;;8.47;5.07;;;;;;;;;;784922;178;620218;-58
2022/07/28 09:52:58;;;;;;;9.60;5.30;;;;;;;;;;771976;180;626848;-58
2022/07/28 09:55:23;;;;;;;16.57;5.50;;;;;;;;;;775318;177;717569;-59
2022/07/28 09:57:49;;;;;;;15.20;6.63;;;;;;;;;;774574;179;915475;-60
2022/07/28 10:00:16;;;;;;;11.23;6.17;;;;;;;;;;782585;179;614673;-58
2022/07/28 10:02:42;;;;;;;10.93;5.70;;;;;;;;;;781453;179;630942;-59
2022/07/28 10:05:08;;;;;;;11.07;6.67;;;;;;;;;;772929;181;698202;-57
2022/07/28 10:07:34;;;;;;;7.50;5.30;;;;;;;;;;777730;180;918659;-59
2022/07/28 10:10:00;;;;;;;16.47;7.43;;;;;;;;;;771532;180;918604;-58
2022/07/28 10:12:25;;;;;;;12.47;7.73;;;;;;;;;;776018;180;620791;-58
2022/07/28 10:14:51;;;;;;;12.90;6.57;;;;;;;;;;783622;180;616006;-57
2022/07/28 10:17:21;;;;;;;15.87;5.80;;;;;;;;;;769096;177;640714;-58
2022/07/28 10:19:48;;;;;;;13.80;7.73;;;;;;;;;;775937;180;640008;-59
2022/07/28 10:22:14;;;;;;;15.70;9.73;;;;;;;;;;776246;180;644744;-58
2022/07/28 10:24:41;;;;;;;9.53;6.33;;;;;;;;;;781652;180;633657;-58
2022/07/28 10:27:06;;;;;;;12.03;5.90;;;;;;;;;;777352;178;630382;-60
2022/07/28 10:29:32;;;;;;;9.77;5.70;;;;;;;;;;776462;180;626680;-58
2022/07/28 10:31:58;;;;;;;11.23;5.50;;;;;;;;;;767861;180;718825;-61
2022/07/28 10:34:24;;;;;;;9.17;6.63;;;;;;;;;;769337;180;619816;-58
2022/07/28 10:36:50;;;;;;;9.63;5.67;;;;;;;;;;775512;180;624006;-59
2022/07/28 10:39:16;;;;;;;10.20;5.90;;;;;;;;;;776708;180;629941;-58
2022/07/28 10:41:42;;;;;;;9.17;6.10;;;;;;;;;;775953;180;636474;-59
2022/07/28 10:44:07;;;;;;;8.03;5.27;;;;;;;;;;772992;180;918817;-59
2022/07/28 10:46:37;;;;;;;12.50;5.20;;;;;;;;;;775846;177;623994;-60
2022/07/28 10:49:03;;;;;;;14.07;5.37;;;;;;;;;;777978;180;632743;-59
2022/07/28 10:51:28;;;;;;;16.10;5.90;;;;;;;;;;775233;180;630436;-59
2022/07/28 10:53:54;;;;;;;11.07;5.90;;;;;;;;;;775960;180;636650;-60
2022/07/28 10:56:22;;;;;;;7.87;4.20;;;;;;;;;;780476;180;621540;-60
2022/07/28 10:58:49;;;;;;;11.27;5.90;;;;;;;;;;782110;177;625970;-60
2022/07/28 11:01:20;;;;;;;10.07;5.40;;;;;;;;;;777323;177;629187;-59
2022/07/28 11:03:46;;;;;;;9.73;5.63;;;;;;;;;;775245;180;625525;-61
2022/07/28 11:06:18;;;;;;;17.57;6.60;;;;;;;;;;784030;180;630115;-59
2022/07/28 11:08:43;;;;;;;14.23;5.23;;;;;;;;;;773144;180;694208;-59
2022/07/28 11:11:09;;;;;;;10.07;5.50;;;;;;;;;;777043;181;629456;-59
2022/07/28 11:13:35;;;;;;;7.23;4.87;;;;;;;;;;774558;180;638344;-60
2022/07/28 11:16:07;;;;;;;8.30;5.60;;;;;;;;;;781494;180;620694;-60
2022/07/28 11:18:33;;;;;;;10.37;5.30;;;;;;;;;;771627;179;629480;-59
2022/07/28 11:21:05;;;;;;;6.37;5.07;;;;;;;;;;766779;181;636034;-60
2022/07/28 11:23:37;;;;;;;7.70;6.20;;;;;;;;;;780156;181;625165;-60
2022/07/28 11:26:09;;;;;;;11.17;6.80;;;;;;;;;;783430;181;638669;-60
2022/07/28 11:28:34;;;;;;;9.20;5.70;;;;;;;;;;778668;181;618675;-60
2022/07/28 11:31:00;;;;;;;7.30;5.30;;;;;;;;;;777565;181;634647;-59
2022/07/28 11:33:28;;;;;;;9.90;5.37;;;;;;;;;;780072;179;636729;-60
2022/07/28 11:35:52;;;;;;;6.97;4.83;;;;;;;;;;772297;180;625097;-59
2022/07/28 11:38:18;;;;;;;8.10;4.97;;;;;;;;;;763202;181;633241;-59
2022/07/28 11:40:46;;;;;;;8.50;4.63;;;;;;;;;;775906;180;636260;-59
2022/07/28 11:43:17;;;;;;;8.07;4.80;;;;;;;;;;780650;181;819214;-59
2022/07/28 11:45:43;;;;;;;10.50;5.53;;;;;;;;;;776535;180;836754;-59
2022/07/28 11:48:13;;;;;;;7.33;5.63;;;;;;;;;;774116;180;904620;-60
2022/07/28 11:50:39;;;;;;;9.23;5.43;;;;;;;;;;772376;180;919187;-61
2022/07/28 11:53:05;;;;;;;6.63;4.90;;;;;;;;;;779573;180;818592;-60
2022/07/28 11:55:30;;;;;;;7.03;4.67;;;;;;;;;;773714;181;918906;-60
2022/07/28 11:57:56;;;;;;;8.93;4.13;;;;;;;;;;774042;179;819347;-59
2022/07/28 12:00:24;;;;;;;10.13;4.67;;;;;;;;;;774885;178;918437;-60
2022/07/28 12:02:48;;;;;;;6.93;4.77;;;;;;;;;;769075;181;918364;-60
2022/07/28 12:05:14;;;;;;;6.10;5.10;;;;;;;;;;773149;181;907857;-58
2022/07/28 12:07:40;;;;;;;7.83;5.60;;;;;;;;;;771343;180;911987;-59
2022/07/28 12:10:11;;;;;;;5.63;4.40;;;;;;;;;;774167;180;919134;-62
2022/07/28 12:12:37;;;;;;;9.30;4.80;;;;;;;;;;775835;178;814977;-58
2022/07/28 12:15:03;;;;;;;6.17;4.80;;;;;;;;;;773436;180;915123;-60
2022/07/28 12:17:32;;;;;;;9.85;5.35;;;;;;;;;;774525;179;917564;-59
2022/07/28 12:19:57;;;;;;;7.77;5.13;;;;;;;;;;766405;181;918430;-60
2022/07/28 12:22:23;;;;;;;11.27;4.67;;;;;;;;;;772084;180;920711;-60
2022/07/28 12:24:49;;;;;;;5.95;4.82;;;;;;;;;;768274;180;920625;-59
2022/07/28 12:27:15;;;;;;;9.10;4.70;;;;;;;;;;772592;181;802840;-59
2022/07/28 12:29:41;;;;;;;6.43;3.90;;;;;;;;;;773761;179;889770;-61
2022/07/28 12:32:09;;;;;;;6.63;4.40;;;;;;;;;;774556;180;917330;-59
2022/07/28 12:34:36;;;;;;;9.20;4.77;;;;;;;;;;776122;180;920716;-60
2022/07/28 12:37:01;;;;;;;6.10;4.33;;;;;;;;;;756296;184;917485;-61
2022/07/28 12:39:27;;;;;;;8.48;4.18;;;;;;;;;;758250;182;918521;-60
2022/07/28 12:41:58;;;;;;;8.07;5.00;;;;;;;;;;767012;181;878804;-60
2022/07/28 12:44:24;;;;;;;6.07;4.00;;;;;;;;;;782487;180;815089;-59
2022/07/28 12:46:50;;;;;;;6.40;4.67;;;;;;;;;;772837;176;923308;-59
2022/07/28 12:49:18;;;;;;;6.72;4.53;;;;;;;;;;769758;181;919338;-59
2022/07/28 12:51:44;;;;;;;5.67;4.70;;;;;;;;;;780746;180;816069;-61
2022/07/28 12:54:10;;;;;;;8.63;4.87;;;;;;;;;;774514;180;919015;-61
2022/07/28 12:56:41;;;;;;;8.43;4.18;;;;;;;;;;775036;180;918559;-59
2022/07/28 12:59:07;;;;;;;6.87;3.93;;;;;;;;;;771355;180;919123;-60
2022/07/28 13:01:39;;;;;;;5.40;3.60;;;;;;;;;;772346;180;918106;-60
2022/07/28 13:04:05;;;;;;;7.90;3.60;;;;;;;;;;774390;179;919303;-60
2022/07/28 13:06:31;;;;;;;5.93;4.40;;;;;;;;;;773161;180;918529;-61
2022/07/28 13:08:57;;;;;;;5.90;4.10;;;;;;;;;;763714;180;918524;-62
2022/07/28 13:11:23;;;;;;;5.90;4.13;;;;;;;;;;780434;180;917509;-61
2022/07/28 13:13:49;;;;;;;7.87;4.70;;;;;;;;;;774740;177;921013;-60
2022/07/28 13:16:17;;;;;;;4.50;3.30;;;;;;;;;;771254;180;922288;-61
2022/07/28 13:18:43;;;;;;;7.07;3.90;;;;;;;;;;764689;182;919860;-60
2022/07/28 13:21:10;;;;;;;5.87;3.87;;;;;;;;;;762062;181;915950;-59
2022/07/28 13:23:35;;;;;;;4.80;3.80;;;;;;;;;;766827;181;917999;-59
2022/07/28 13:26:01;;;;;;;10.67;3.70;;;;;;;;;;770768;180;918903;-60
2022/07/28 13:28:27;;;;;;;6.60;3.70;;;;;;;;;;777448;180;919366;-60
2022/07/28 13:30:52;;;;;;;6.40;4.70;;;;;;;;;;767709;179;918966;-62
2022/07/28 13:33:18;;;;;;;5.07;3.50;;;;;;;;;;773075;178;914931;-58
2022/07/28 13:35:45;;;;;;;5.80;3.50;;;;;;;;;;780936;180;703036;-60
2022/07/28 13:38:10;;;;;;;6.57;4.90;;;;;;;;;;774335;177;919639;-60
2022/07/28 13:40:36;;;;;;;8.50;4.03;;;;;;;;;;771238;181;939619;-59
2022/07/28 13:43:02;;;;;;;10.90;4.13;;;;;;;;;;775767;181;912168;-59
2022/07/28 13:45:27;;;;;;;5.87;4.10;;;;;;;;;;773587;179;918528;-59
2022/07/28 13:47:53;;;;;;;9.23;4.35;;;;;;;;;;776158;178;924203;-60
2022/07/28 13:50:19;;;;;;;4.70;3.53;;;;;;;;;;779700;181;917454;-60
2022/07/28 13:52:45;;;;;;;4.07;3.17;;;;;;;;;;774492;178;919170;-60
2022/07/28 13:55:11;;;;;;;8.13;3.50;;;;;;;;;;773756;178;920843;-60
2022/07/28 13:57:37;;;;;;;7.73;3.83;;;;;;;;;;775892;180;907816;-59
2022/07/28 14:00:05;;;;;;;6.73;3.47;;;;;;;;;;778446;180;918945;-60
2022/07/28 14:02:30;;;;;;;7.53;4.43;;;;;;;;;;767545;180;817393;-61
2022/07/28 14:04:56;;;;;;;5.10;3.67;;;;;;;;;;769777;180;926409;-61
2022/07/28 14:07:21;;;;;;;6.50;3.80;;;;;;;;;;778752;177;1010857;-61
2022/07/28 14:09:49;;;;;;;5.27;3.67;;;;;;;;;;774107;180;921358;-62
2022/07/28 14:12:13;;;;;;;5.30;2.87;;;;;;;;;;772462;180;943325;-59
2022/07/28 14:14:39;;;;;;;8.70;3.87;;;;;;;;;;775815;180;915832;-61
2022/07/28 14:17:05;;;;;;;4.53;3.60;;;;;;;;;;773344;180;817248;-59
2022/07/28 14:19:31;;;;;;;8.20;4.10;;;;;;;;;;764111;179;918842;-58